Time;durP1;ratioP1;P1;durP2;ratioP2;P2;SDS_P1;SDS_P2;PMS_P1;PMS_P2;Temp;Humidity;BMP_temperature;BMP_pressure;BME280_temperature;BME280_humidity;BME280_pressure;Samples;Min_cycle;Max_cycle;Signal;HPM_P1;HPM_P2
2022/11/23 00:02:13;;;;;;;22.23;10.38;;;;;;;7.60;100.00;99501.94;5006349;28;20042;-63
2022/11/23 00:04:39;;;;;;;25.00;10.88;;;;;;;7.64;100.00;99494.09;5008426;28;20461;-63
2022/11/23 00:07:04;;;;;;;21.25;10.48;;;;;;;7.65;100.00;99495.75;5012552;28;20065;-63
2022/11/23 00:09:29;;;;;;;27.90;11.93;;;;;;;7.64;100.00;99497.66;5007475;28;20076;-63
2022/11/23 00:11:55;;;;;;;29.42;10.98;;;;;;;7.65;100.00;99491.09;5018679;28;20065;-63
2022/11/23 00:14:20;;;;;;;21.02;10.38;;;;;;;7.65;100.00;99499.31;5026164;28;20447;-63
2022/11/23 00:16:45;;;;;;;27.73;10.23;;;;;;;7.64;100.00;99496.81;5025706;28;20076;-63
2022/11/23 00:19:10;;;;;;;23.23;10.35;;;;;;;7.66;100.00;99497.44;5011337;28;20022;-62
2022/11/23 00:21:36;;;;;;;33.10;10.90;;;;;;;7.66;100.00;99501.00;5006830;28;20457;-63
2022/11/23 00:24:01;;;;;;;24.05;9.55;;;;;;;7.67;100.00;99502.63;5005358;28;20108;-63
2022/11/23 00:26:26;;;;;;;23.55;10.50;;;;;;;7.67;100.00;99512.75;5007150;28;20045;-63
2022/11/23 00:28:52;;;;;;;31.50;10.35;;;;;;;7.66;100.00;99503.72;5006512;28;20030;-63
2022/11/23 00:31:19;;;;;;;22.85;10.27;;;;;;;7.67;100.00;99505.38;5006711;28;20042;-63
2022/11/23 00:33:52;;;;;;;26.67;9.95;;;;;;;7.72;100.00;99505.47;5006623;28;20049;-63
2022/11/23 00:36:18;;;;;;;24.98;10.05;;;;;;;7.69;100.00;99518.78;5005912;28;20128;-62
2022/11/23 00:38:44;;;;;;;20.30;9.23;;;;;;;7.68;100.00;99525.31;5005597;28;20111;-63
2022/11/23 00:41:20;;;;;;;18.00;9.98;;;;;;;7.70;100.00;99515.78;5005851;28;20449;-63
2022/11/23 00:43:46;;;;;;;19.55;9.20;;;;;;;7.69;100.00;99518.78;5016382;28;20078;-63
2022/11/23 00:46:15;;;;;;;22.80;9.63;;;;;;;7.70;100.00;99524.00;5019337;28;20130;-63
2022/11/23 00:48:42;;;;;;;24.98;9.73;;;;;;;7.71;100.00;99524.84;5006046;28;20426;-63
2022/11/23 00:51:09;;;;;;;18.23;7.68;;;;;;;7.74;100.00;99525.16;5004599;28;20038;-62
2022/11/23 00:53:35;;;;;;;22.88;8.98;;;;;;;7.73;100.00;99525.44;5002552;28;20073;-63
2022/11/23 00:56:01;;;;;;;24.23;9.20;;;;;;;7.74;100.00;99527.91;4989540;28;20021;-63
2022/11/23 00:58:27;;;;;;;24.52;8.38;;;;;;;7.71;100.00;99525.69;5005884;28;20041;-63
2022/11/23 01:01:04;;;;;;;27.05;8.45;;;;;;;7.76;100.00;99523.03;5006169;28;20072;-63
2022/11/23 01:03:30;;;;;;;22.27;7.10;;;;;;;7.76;100.00;99525.78;5004222;28;20656;-63
2022/11/23 01:06:02;;;;;;;21.15;6.65;;;;;;;7.76;100.00;99525.78;5002137;28;20038;-63
2022/11/23 01:08:27;;;;;;;23.20;7.65;;;;;;;7.75;100.00;99526.00;5004535;28;20033;-63
2022/11/23 01:10:57;;;;;;;21.60;7.43;;;;;;;7.76;100.00;99528.50;5006765;28;20678;-63
2022/11/23 01:13:22;;;;;;;23.17;7.65;;;;;;;7.77;100.00;99526.59;5001945;28;20392;-63
2022/11/23 01:15:49;;;;;;;16.95;6.53;;;;;;;7.76;100.00;99528.50;5005579;28;20038;-63
2022/11/23 01:18:14;;;;;;;19.75;7.65;;;;;;;7.76;100.00;99533.97;4986985;28;20042;-63
2022/11/23 01:20:40;;;;;;;18.23;6.38;;;;;;;7.72;100.00;99535.53;4993359;28;20412;-63
2022/11/23 01:23:05;;;;;;;20.98;8.00;;;;;;;7.72;100.00;99537.44;5004798;28;20107;-63
2022/11/23 01:25:30;;;;;;;23.60;6.47;;;;;;;7.72;100.00;99524.59;5005735;28;20473;-63
2022/11/23 01:27:55;;;;;;;24.88;6.13;;;;;;;7.74;100.00;99530.63;5005505;28;20295;-63
2022/11/23 01:30:20;;;;;;;22.33;6.50;;;;;;;7.78;100.00;99537.28;5005979;28;20030;-63
2022/11/23 01:32:46;;;;;;;24.55;6.43;;;;;;;7.73;100.00;99534.44;5004808;28;20037;-63
2022/11/23 01:35:11;;;;;;;22.35;7.22;;;;;;;7.73;100.00;99544.56;5005110;28;20282;-63
2022/11/23 01:37:36;;;;;;;24.08;7.03;;;;;;;7.73;100.00;99539.09;5004804;28;20042;-63
2022/11/23 01:40:02;;;;;;;25.88;6.72;;;;;;;7.70;100.00;99551.31;5003605;28;20042;-62
2022/11/23 01:42:43;;;;;;;19.08;6.20;;;;;;;7.71;100.00;99554.91;5005343;28;20030;-63
2022/11/23 01:45:37;;;;;;;25.50;7.35;;;;;;;7.71;100.00;99554.91;4994892;28;20045;-63
2022/11/23 01:48:10;;;;;;;22.15;7.20;;;;;;;7.72;100.00;99551.94;4987520;28;20041;-63
2022/11/23 01:50:36;;;;;;;20.15;7.40;;;;;;;7.75;100.00;99556.06;5004098;28;20029;-63
2022/11/23 01:53:01;;;;;;;21.65;6.72;;;;;;;7.73;100.00;99553.59;5015521;28;20029;-63
2022/11/23 01:55:27;;;;;;;24.95;6.70;;;;;;;7.73;100.00;99556.31;5009273;28;20083;-63
2022/11/23 01:57:53;;;;;;;20.25;6.70;;;;;;;7.77;100.00;99553.94;5004495;28;20069;-63
2022/11/23 02:00:18;;;;;;;20.13;6.30;;;;;;;7.75;100.00;99554.16;5005194;28;20165;-63
2022/11/23 02:02:49;;;;;;;18.98;5.63;;;;;;;7.76;100.00;99555.00;5006325;28;20518;-63
2022/11/23 02:05:18;;;;;;;20.60;6.75;;;;;;;7.79;100.00;99565.44;5002223;28;20393;-63
2022/11/23 02:07:45;;;;;;;23.52;6.45;;;;;;;7.78;100.00;99564.59;5008438;28;20065;-63
2022/11/23 02:10:11;;;;;;;21.70;6.72;;;;;;;7.77;100.00;99568.44;5005400;28;20057;-63
2022/11/23 02:12:36;;;;;;;25.33;6.28;;;;;;;7.77;100.00;99573.06;5008015;28;20428;-63
2022/11/23 02:15:01;;;;;;;16.48;5.43;;;;;;;7.76;100.00;99572.22;5011002;28;20037;-62
2022/11/23 02:17:26;;;;;;;21.63;6.55;;;;;;;7.77;100.00;99578.53;5027167;28;20045;-63
2022/11/23 02:20:07;;;;;;;19.73;5.45;;;;;;;7.82;100.00;99575.06;5028244;28;20018;-63
2022/11/23 02:23:04;;;;;;;19.23;6.30;;;;;;;7.82;100.00;99570.44;5019421;28;20046;-63
2022/11/23 02:25:43;;;;;;;23.42;5.85;;;;;;;7.79;100.00;99565.44;5022837;28;20361;-62
2022/11/23 02:28:14;;;;;;;18.25;4.85;;;;;;;7.78;100.00;99574.72;5008420;28;20469;-63
2022/11/23 02:30:42;;;;;;;18.75;5.25;;;;;;;7.83;100.00;99571.25;5004066;28;20032;-63
2022/11/23 02:33:08;;;;;;;21.90;5.45;;;;;;;7.80;100.00;99569.81;5007822;28;20045;-63
2022/11/23 02:35:33;;;;;;;19.13;5.22;;;;;;;7.82;100.00;99577.81;5008632;28;20076;-63
2022/11/23 02:38:04;;;;;;;24.25;5.65;;;;;;;7.85;100.00;99580.03;4990391;28;20030;-63
2022/11/23 02:40:33;;;;;;;17.33;5.68;;;;;;;7.86;100.00;99574.34;4994198;28;20038;-63
2022/11/23 02:42:59;;;;;;;21.17;5.95;;;;;;;7.86;100.00;99584.44;5008179;28;20533;-63
2022/11/23 02:45:33;;;;;;;16.75;5.65;;;;;;;7.86;100.00;99587.19;5009208;28;20108;-63
2022/11/23 02:47:58;;;;;;;20.92;6.00;;;;;;;7.87;100.00;99583.38;5005989;28;20084;-63
2022/11/23 02:50:23;;;;;;;21.80;5.63;;;;;;;7.87;100.00;99584.19;5004235;28;20061;-63
2022/11/23 02:52:49;;;;;;;21.23;5.40;;;;;;;7.88;100.00;99587.75;5003885;28;20105;-63
2022/11/23 02:55:14;;;;;;;19.98;4.80;;;;;;;7.89;100.00;99583.94;4989007;28;20817;-63
2022/11/23 02:57:39;;;;;;;18.15;5.40;;;;;;;7.87;100.00;99584.19;4998155;28;20034;-63
2022/11/23 03:00:05;;;;;;;23.55;5.70;;;;;;;7.86;100.00;99588.00;5006766;28;20473;-63
2022/11/23 03:02:30;;;;;;;18.33;6.38;;;;;;;7.88;100.00;99579.56;5007915;28;20037;-63
2022/11/23 03:04:55;;;;;;;21.50;5.47;;;;;;;7.87;100.00;99575.16;5009290;28;20392;-63
2022/11/23 03:07:21;;;;;;;20.42;5.32;;;;;;;7.88;100.00;99585.03;5007394;28;20045;-62
2022/11/23 03:09:46;;;;;;;15.80;5.20;;;;;;;7.87;100.00;99581.47;5000236;28;20030;-62
2022/11/23 03:12:11;;;;;;;16.60;5.25;;;;;;;7.87;100.00;99580.63;5008545;28;20118;-63
2022/11/23 03:14:37;;;;;;;19.60;5.50;;;;;;;7.86;100.00;99587.19;5007068;28;20044;-63
2022/11/23 03:17:04;;;;;;;21.05;5.85;;;;;;;7.87;100.00;99577.91;4994639;28;20038;-63
2022/11/23 03:19:29;;;;;;;21.25;5.53;;;;;;;7.87;100.00;99586.94;5020053;28;20029;-63
2022/11/23 03:21:54;;;;;;;21.15;5.38;;;;;;;7.84;100.00;99583.84;5000336;28;20720;-63
2022/11/23 03:24:20;;;;;;;26.98;6.13;;;;;;;7.84;100.00;99594.78;5020563;28;20067;-62
2022/11/23 03:26:45;;;;;;;18.92;5.25;;;;;;;7.85;100.00;99594.53;5027469;28;20377;-63
2022/11/23 03:29:10;;;;;;;23.35;6.00;;;;;;;7.84;100.00;99592.88;5008459;28;20080;-63
2022/11/23 03:31:35;;;;;;;23.02;5.80;;;;;;;7.84;100.00;99594.78;5007085;28;20033;-63
2022/11/23 03:34:01;;;;;;;25.70;6.38;;;;;;;7.80;100.00;99592.53;5006727;28;20084;-62
2022/11/23 03:36:26;;;;;;;21.92;6.55;;;;;;;7.85;100.00;99589.06;5010483;28;20028;-63
2022/11/23 03:38:51;;;;;;;24.15;5.53;;;;;;;7.88;100.00;99595.94;5007357;28;20029;-63
2022/11/23 03:41:16;;;;;;;25.05;6.50;;;;;;;7.83;100.00;99590.38;5018660;28;20037;-63
2022/11/23 03:43:42;;;;;;;22.00;5.50;;;;;;;7.79;100.00;99593.59;5023206;28;20397;-63
2022/11/23 03:46:07;;;;;;;22.52;5.65;;;;;;;7.78;100.00;99591.13;5012056;28;20137;-63
2022/11/23 03:48:32;;;;;;;20.98;5.00;;;;;;;7.74;100.00;99590.75;5025106;28;20534;-63
2022/11/23 03:50:57;;;;;;;23.77;6.53;;;;;;;7.76;100.00;99593.28;5005816;28;20077;-63
2022/11/23 03:53:23;;;;;;;19.70;5.63;;;;;;;7.71;100.00;99596.72;5006103;28;20361;-63
2022/11/23 03:55:48;;;;;;;24.42;5.70;;;;;;;7.72;100.00;99589.34;5006339;28;20033;-62
2022/11/23 03:58:13;;;;;;;21.10;5.97;;;;;;;7.70;100.00;99595.03;5006697;28;20033;-63
2022/11/23 04:00:39;;;;;;;17.73;5.15;;;;;;;7.68;100.00;99596.38;5017626;28;20025;-62
2022/11/23 04:03:04;;;;;;;24.38;4.90;;;;;;;7.67;100.00;99589.25;5023309;28;20033;-63
2022/11/23 04:05:30;;;;;;;17.00;4.82;;;;;;;7.65;100.00;99597.69;5026692;28;20458;-63
2022/11/23 04:07:55;;;;;;;22.13;5.45;;;;;;;7.65;100.00;99591.38;5006440;28;20037;-63
2022/11/23 04:10:20;;;;;;;19.95;4.75;;;;;;;7.63;100.00;99586.16;5004113;28;20361;-63
2022/11/23 04:12:50;;;;;;;22.27;4.95;;;;;;;7.65;100.00;99602.31;5023357;28;20503;-62
2022/11/23 04:15:16;;;;;;;22.23;6.05;;;;;;;7.64;100.00;99603.41;5014455;28;20061;-63
2022/11/23 04:17:41;;;;;;;20.73;4.75;;;;;;;7.64;100.00;99603.41;5018941;28;20065;-63
2022/11/23 04:20:08;;;;;;;22.67;5.45;;;;;;;7.65;100.00;99603.13;5013967;28;20055;-63
2022/11/23 04:22:33;;;;;;;22.02;6.68;;;;;;;7.67;100.00;99601.00;4992908;28;20041;-63
2022/11/23 04:24:58;;;;;;;17.92;4.88;;;;;;;7.68;100.00;99599.94;4989335;28;20397;-63
2022/11/23 04:27:23;;;;;;;24.00;5.35;;;;;;;7.69;100.00;99598.03;5013600;28;20033;-63
2022/11/23 04:29:49;;;;;;;22.38;4.95;;;;;;;7.70;100.00;99605.97;5019975;28;20029;-62
2022/11/23 04:32:14;;;;;;;18.20;4.43;;;;;;;7.67;100.00;99595.56;5024882;28;20037;-63
2022/11/23 04:34:39;;;;;;;18.45;4.93;;;;;;;7.70;100.00;99591.47;5009766;28;20070;-62
2022/11/23 04:37:04;;;;;;;15.60;5.28;;;;;;;7.69;100.00;99600.75;5017693;28;20037;-63
2022/11/23 04:39:30;;;;;;;22.60;5.22;;;;;;;7.69;100.00;99596.13;5012212;28;20030;-63
2022/11/23 04:41:55;;;;;;;22.80;5.63;;;;;;;7.71;100.00;99595.91;5018014;28;20046;-62
2022/11/23 04:44:20;;;;;;;20.45;5.32;;;;;;;7.70;100.00;99594.22;5006582;28;20061;-63
2022/11/23 04:46:46;;;;;;;18.95;4.88;;;;;;;7.71;100.00;99595.91;5017663;28;20034;-63
2022/11/23 04:49:12;;;;;;;19.58;5.00;;;;;;;7.71;100.00;99599.47;5020468;28;20472;-63
2022/11/23 04:51:37;;;;;;;23.30;4.50;;;;;;;7.72;100.00;99600.28;5024324;28;20399;-62
2022/11/23 04:54:02;;;;;;;21.98;5.40;;;;;;;7.73;100.00;99597.31;5010073;28;20068;-63
2022/11/23 04:56:28;;;;;;;21.63;4.80;;;;;;;7.74;100.00;99595.41;5005839;28;20026;-63
2022/11/23 04:58:53;;;;;;;20.30;5.55;;;;;;;7.71;100.00;99602.19;5012383;28;20374;-63
2022/11/23 05:01:18;;;;;;;19.30;5.05;;;;;;;7.70;100.00;99595.03;5004473;28;20026;-63
2022/11/23 05:03:43;;;;;;;27.52;6.25;;;;;;;7.70;100.00;99592.31;4995073;28;20038;-62
2022/11/23 05:06:09;;;;;;;24.13;5.30;;;;;;;7.70;100.00;99595.03;5003413;28;20037;-63
2022/11/23 05:08:35;;;;;;;19.67;5.32;;;;;;;7.73;100.00;99589.09;5023283;28;20040;-63
2022/11/23 05:11:01;;;;;;;25.85;5.90;;;;;;;7.73;100.00;99594.56;5017423;28;20041;-63
2022/11/23 05:13:26;;;;;;;25.30;5.45;;;;;;;7.70;100.00;99583.28;5018839;28;20037;-63
2022/11/23 05:15:51;;;;;;;18.65;4.78;;;;;;;7.74;100.00;99585.28;5007207;28;20026;-63
2022/11/23 05:18:16;;;;;;;20.98;5.00;;;;;;;7.74;100.00;99587.19;5007540;28;20419;-63
2022/11/23 05:20:42;;;;;;;16.73;4.60;;;;;;;7.70;100.00;99588.75;5019998;28;20030;-63
2022/11/23 05:23:07;;;;;;;26.38;5.88;;;;;;;7.69;100.00;99590.66;5018040;28;20042;-63
2022/11/23 05:25:32;;;;;;;23.65;4.50;;;;;;;7.63;100.00;99591.63;5006482;28;20068;-63
2022/11/23 05:27:58;;;;;;;20.75;4.63;;;;;;;7.60;100.00;99597.56;5003815;28;20036;-63
2022/11/23 05:30:23;;;;;;;26.40;5.43;;;;;;;7.59;100.00;99593.19;5001273;28;20405;-63
2022/11/23 05:32:49;;;;;;;18.50;4.25;;;;;;;7.55;100.00;99592.00;5006045;28;20556;-63
2022/11/23 05:35:14;;;;;;;27.45;5.55;;;;;;;7.53;100.00;99595.00;5016390;28;20030;-63
2022/11/23 05:37:40;;;;;;;20.80;4.35;;;;;;;7.52;100.00;99604.25;5020579;28;20129;-63
2022/11/23 05:40:06;;;;;;;18.27;4.72;;;;;;;7.58;100.00;99605.19;5012001;28;20030;-63
2022/11/23 05:42:32;;;;;;;24.38;5.60;;;;;;;7.52;100.00;99604.25;5012543;28;20034;-63
2022/11/23 05:44:57;;;;;;;21.95;5.90;;;;;;;7.53;100.00;99592.25;5029421;28;20071;-63
2022/11/23 05:47:23;;;;;;;25.70;5.20;;;;;;;7.49;100.00;99590.25;5028407;28;20025;-63
2022/11/23 05:49:49;;;;;;;20.35;4.78;;;;;;;7.48;100.00;99600.34;5014272;28;20033;-63
2022/11/23 05:52:14;;;;;;;23.48;5.45;;;;;;;7.46;100.00;99604.41;5032148;28;20094;-61
2022/11/23 05:54:40;;;;;;;23.27;5.45;;;;;;;7.44;100.00;99601.06;5015737;28;20026;-63
2022/11/23 05:57:05;;;;;;;27.20;6.22;;;;;;;7.44;100.00;99599.16;5011730;28;20088;-63
2022/11/23 05:59:30;;;;;;;21.42;5.45;;;;;;;7.43;100.00;99593.94;5013345;28;20056;-63
2022/11/23 06:01:55;;;;;;;21.25;5.88;;;;;;;7.42;100.00;99600.50;5031361;28;20063;-63
2022/11/23 06:04:21;;;;;;;20.45;5.82;;;;;;;7.42;100.00;99592.28;5030016;28;20022;-63
2022/11/23 06:06:46;;;;;;;22.80;5.07;;;;;;;7.39;100.00;99607.25;5014000;28;20515;-63
2022/11/23 06:09:11;;;;;;;24.30;5.68;;;;;;;7.38;100.00;99608.31;5021559;28;20036;-62
2022/11/23 06:11:37;;;;;;;21.98;4.97;;;;;;;7.37;100.00;99606.66;5012940;28;20037;-62
2022/11/23 06:14:02;;;;;;;27.52;6.28;;;;;;;7.36;100.00;99596.00;5011579;28;20099;-63
2022/11/23 06:16:28;;;;;;;16.40;4.72;;;;;;;7.36;100.00;99609.66;5011991;28;20084;-63
2022/11/23 06:18:53;;;;;;;20.75;5.20;;;;;;;7.35;100.00;99600.63;5027147;28;20030;-63
2022/11/23 06:21:18;;;;;;;26.55;5.20;;;;;;;7.33;100.00;99601.91;5031068;28;20033;-62
2022/11/23 06:23:46;;;;;;;24.63;5.18;;;;;;;7.33;100.00;99604.66;5031359;28;20037;-63
2022/11/23 06:26:11;;;;;;;23.13;5.57;;;;;;;7.31;100.00;99602.16;5014919;28;20481;-63
2022/11/23 06:28:37;;;;;;;21.13;4.65;;;;;;;7.33;100.00;99610.94;5012991;28;20068;-63
2022/11/23 06:31:05;;;;;;;21.98;5.05;;;;;;;7.36;100.00;99610.47;5010719;28;20036;-63
2022/11/23 06:33:30;;;;;;;;;;;;;;;7.41;100.00;99604.28;5010215;28;20041;-63
2022/11/23 06:35:58;;;;;;;21.85;4.90;;;;;;;7.37;100.00;99609.41;5014052;28;19913;-63
2022/11/23 06:38:24;;;;;;;24.23;4.80;;;;;;;7.38;100.00;99612.97;5019732;28;20038;-63
2022/11/23 06:40:49;;;;;;;16.60;4.80;;;;;;;7.34;100.00;99612.59;5012036;28;20372;-63
2022/11/23 06:43:14;;;;;;;24.80;4.78;;;;;;;7.36;100.00;99620.56;5009710;28;20512;-62
2022/11/23 06:45:40;;;;;;;19.75;4.55;;;;;;;7.34;100.00;99617.22;5018080;28;20026;-63
2022/11/23 06:48:05;;;;;;;23.63;4.68;;;;;;;7.33;100.00;99623.78;5028253;28;20480;-63
2022/11/23 06:50:31;;;;;;;19.70;5.18;;;;;;;7.32;100.00;99619.38;5024366;28;20029;-63
2022/11/23 06:52:56;;;;;;;16.33;5.22;;;;;;;7.36;100.00;99621.41;5020306;28;20433;-63
2022/11/23 06:55:23;;;;;;;24.13;4.80;;;;;;;7.33;100.00;99621.88;5006908;28;20030;-63
2022/11/23 06:57:48;;;;;;;23.85;5.15;;;;;;;7.35;100.00;99627.09;5008793;28;20038;-63
2022/11/23 07:00:14;;;;;;;21.98;4.47;;;;;;;7.33;100.00;99634.69;5024686;28;20033;-63
2022/11/23 07:02:39;;;;;;;23.92;4.65;;;;;;;7.34;100.00;99642.63;5027978;28;20067;-63
2022/11/23 07:05:05;;;;;;;21.02;4.70;;;;;;;7.33;100.00;99642.88;5000125;28;20046;-63
2022/11/23 07:07:31;;;;;;;17.80;4.22;;;;;;;7.34;100.00;99655.47;5007372;28;20376;-63
2022/11/23 07:09:56;;;;;;;24.20;4.93;;;;;;;7.33;100.00;99645.63;5007232;28;20026;-62
2022/11/23 07:12:21;;;;;;;27.02;5.22;;;;;;;7.29;100.00;99648.81;5007722;28;20045;-63
2022/11/23 07:14:47;;;;;;;19.02;4.25;;;;;;;7.29;100.00;99651.53;5009209;28;20055;-63
2022/11/23 07:17:12;;;;;;;21.30;4.63;;;;;;;7.29;100.00;99658.91;5018069;28;20041;-64
2022/11/23 07:19:37;;;;;;;16.52;5.00;;;;;;;7.25;100.00;99663.22;5016587;28;20782;-64
2022/11/23 07:22:02;;;;;;;21.75;5.05;;;;;;;7.23;100.00;99657.97;5022593;28;20052;-64
2022/11/23 07:24:28;;;;;;;20.80;4.80;;;;;;;7.25;100.00;99669.50;5012107;28;20034;-63
2022/11/23 07:26:53;;;;;;;18.00;4.53;;;;;;;7.29;100.00;99676.13;5015503;28;20117;-63
2022/11/23 07:29:18;;;;;;;19.20;5.82;;;;;;;7.36;100.00;99669.75;5028462;28;20017;-63
2022/11/23 07:31:44;;;;;;;24.23;5.20;;;;;;;7.33;100.00;99681.13;5016008;28;20080;-63
2022/11/23 07:34:09;;;;;;;23.00;4.50;;;;;;;7.36;100.00;99676.03;5008037;28;20361;-63
2022/11/23 07:36:35;;;;;;;19.92;4.88;;;;;;;7.36;100.00;99677.94;5026013;28;20029;-63
2022/11/23 07:39:00;;;;;;;18.08;4.30;;;;;;;7.40;100.00;99677.22;5024818;28;20561;-64
2022/11/23 07:41:26;;;;;;;22.88;4.85;;;;;;;7.42;100.00;99680.53;5020106;28;20045;-63
2022/11/23 07:43:51;;;;;;;21.65;4.45;;;;;;;7.43;100.00;99681.34;5008786;28;20354;-63
2022/11/23 07:46:17;;;;;;;16.73;4.13;;;;;;;7.41;100.00;99683.50;5007192;28;20030;-63
2022/11/23 07:48:42;;;;;;;22.20;5.53;;;;;;;7.38;100.00;99694.91;5011315;28;20034;-63
2022/11/23 07:51:07;;;;;;;17.15;4.72;;;;;;;7.35;100.00;99693.50;5022188;28;20063;-63
2022/11/23 07:53:34;;;;;;;20.60;3.88;;;;;;;7.31;100.00;99692.31;5007828;28;20040;-63
2022/11/23 07:56:00;;;;;;;21.73;5.57;;;;;;;7.31;100.00;99702.41;4997755;28;20117;-63
2022/11/23 07:58:25;;;;;;;21.30;3.72;;;;;;;7.30;100.00;99704.31;5003976;28;20117;-63
2022/11/23 08:00:51;;;;;;;17.85;4.32;;;;;;;7.36;100.00;99697.88;5007168;28;20116;-63
2022/11/23 08:03:16;;;;;;;19.15;3.67;;;;;;;7.47;100.00;99701.66;5012904;28;20465;-63
2022/11/23 08:05:42;;;;;;;16.85;3.45;;;;;;;7.68;99.32;99701.06;4992068;28;20038;-63
2022/11/23 08:08:07;;;;;;;15.43;4.78;;;;;;;7.79;97.67;99702.09;4999525;28;20140;-63
2022/11/23 08:10:32;;;;;;;14.48;3.53;;;;;;;8.02;96.18;99703.97;5008206;28;20049;-63
2022/11/23 08:12:59;;;;;;;18.48;3.90;;;;;;;8.30;95.10;99698.50;4998170;28;20054;-63
2022/11/23 08:15:27;;;;;;;18.90;4.07;;;;;;;8.62;93.08;99706.25;5014620;28;20033;-63
2022/11/23 08:18:00;;;;;;;17.42;4.45;;;;;;;8.80;91.72;99700.53;5005418;28;20030;-63
2022/11/23 08:20:26;;;;;;;12.88;3.75;;;;;;;9.06;89.78;99707.28;5008332;28;20033;-63
2022/11/23 08:22:54;;;;;;;21.30;4.68;;;;;;;9.30;88.12;99694.25;5007704;28;20365;-63
2022/11/23 08:25:24;;;;;;;16.73;3.22;;;;;;;9.30;87.20;99710.69;5006938;28;20054;-62
2022/11/23 08:28:00;;;;;;;17.65;3.90;;;;;;;9.47;86.80;99705.19;5008428;28;20030;-63
2022/11/23 08:30:27;;;;;;;15.40;3.38;;;;;;;9.35;85.03;99694.31;5007597;28;20038;-63
2022/11/23 08:32:53;;;;;;;18.63;3.95;;;;;;;9.25;85.66;99701.56;5007599;28;20037;-62
2022/11/23 08:35:18;;;;;;;19.60;4.13;;;;;;;9.39;85.81;99700.13;5006664;28;20033;-63
2022/11/23 08:37:43;;;;;;;16.95;4.15;;;;;;;9.34;84.27;99709.09;5007796;28;20045;-63
2022/11/23 08:40:10;;;;;;;16.20;3.30;;;;;;;9.08;85.98;99715.28;5008425;28;20029;-63
2022/11/23 08:42:35;;;;;;;17.92;3.53;;;;;;;8.92;86.06;99716.06;5007188;28;20038;-63
2022/11/23 08:45:02;;;;;;;18.10;4.13;;;;;;;8.81;87.37;99715.88;5005534;28;20113;-63
2022/11/23 08:47:27;;;;;;;14.88;3.90;;;;;;;8.89;87.64;99717.41;5005207;28;20388;-62
2022/11/23 08:49:52;;;;;;;13.88;3.88;;;;;;;9.06;86.07;99711.94;4999027;28;20029;-63
2022/11/23 08:52:18;;;;;;;17.02;3.65;;;;;;;9.17;86.11;99710.19;5002816;28;20044;-63
2022/11/23 08:54:43;;;;;;;11.82;4.00;;;;;;;9.34;85.00;99703.63;5001884;28;20416;-64
2022/11/23 08:57:08;;;;;;;16.27;4.30;;;;;;;9.71;83.16;99703.06;4994219;28;20025;-63
2022/11/23 08:59:33;;;;;;;10.23;3.35;;;;;;;9.97;80.58;99703.41;4987715;28;20037;-63
2022/11/23 09:01:59;;;;;;;14.30;3.67;;;;;;;9.61;81.42;99697.44;5000944;28;20472;-63
2022/11/23 09:04:26;;;;;;;14.40;3.40;;;;;;;9.50;81.92;99696.47;5001027;28;20022;-63
2022/11/23 09:06:52;;;;;;;11.83;3.03;;;;;;;9.67;81.54;99692.84;5001237;28;20045;-63
2022/11/23 09:09:17;;;;;;;14.45;4.18;;;;;;;10.21;81.39;99690.25;5003578;28;20042;-63
2022/11/23 09:11:42;;;;;;;14.73;3.22;;;;;;;10.22;78.01;99686.41;5000222;28;20480;-63
2022/11/23 09:14:07;;;;;;;12.98;3.38;;;;;;;10.09;79.22;99702.19;5002626;28;20040;-62
2022/11/23 09:16:33;;;;;;;15.38;3.08;;;;;;;10.09;79.52;99701.38;4998608;28;20691;-64
2022/11/23 09:18:58;;;;;;;15.02;3.38;;;;;;;9.95;79.12;99709.16;4998143;28;20032;-63
2022/11/23 09:21:28;;;;;;;13.57;3.50;;;;;;;9.74;80.71;99696.25;5003450;28;20029;-63
2022/11/23 09:23:53;;;;;;;11.38;3.28;;;;;;;9.60;80.46;99687.56;5001673;28;20076;-63
2022/11/23 09:26:19;;;;;;;15.70;3.05;;;;;;;9.66;79.79;99681.06;5006768;28;20018;-63
2022/11/23 09:28:44;;;;;;;13.87;2.90;;;;;;;9.81;79.59;99684.00;5006757;28;20036;-63
2022/11/23 09:31:09;;;;;;;15.60;3.13;;;;;;;10.08;78.13;99686.81;5005976;28;20296;-63
2022/11/23 09:33:34;;;;;;;14.98;2.92;;;;;;;10.36;76.79;99674.81;5005359;28;20030;-63
2022/11/23 09:36:03;;;;;;;18.20;3.40;;;;;;;10.51;76.01;99674.16;5004820;28;20036;-63
2022/11/23 09:38:29;;;;;;;14.98;3.10;;;;;;;10.61;75.44;99678.91;5005165;28;20116;-63
2022/11/23 09:41:01;;;;;;;14.80;2.90;;;;;;;10.78;75.09;99667.81;5006746;28;20125;-62
2022/11/23 09:43:39;;;;;;;12.65;2.97;;;;;;;10.98;74.21;99667.97;5005787;28;20029;-60
2022/11/23 09:46:20;;;;;;;12.20;2.67;;;;;;;11.39;72.15;99662.78;5004554;28;20018;-62
2022/11/23 09:49:01;;;;;;;16.45;2.65;;;;;;;11.65;71.09;99661.84;5006154;28;20080;-62
2022/11/23 09:51:27;;;;;;;14.30;2.80;;;;;;;11.93;68.70;99657.06;5007100;28;20038;-62
2022/11/23 09:54:08;;;;;;;11.48;2.50;;;;;;;12.14;68.88;99656.03;5002171;28;20389;-63
2022/11/23 09:56:35;;;;;;;12.13;3.05;;;;;;;12.93;65.56;99646.53;5005871;28;20038;-62
2022/11/23 09:59:09;;;;;;;14.10;3.65;;;;;;;13.57;62.27;99644.28;5004954;28;20052;-61
2022/11/23 10:01:34;;;;;;;15.30;2.90;;;;;;;13.60;60.67;99632.69;5002651;28;20532;-62
2022/11/23 10:04:00;;;;;;;13.10;2.92;;;;;;;13.75;60.50;99633.47;5004626;28;20128;-63
2022/11/23 10:06:27;;;;;;;12.02;2.95;;;;;;;14.29;59.11;99637.34;5006086;28;20042;-63
2022/11/23 10:09:29;;;;;;;14.88;2.67;;;;;;;14.74;58.95;99635.41;5004394;28;20038;-63
2022/11/23 10:12:08;;;;;;;12.80;3.00;;;;;;;14.44;58.63;99637.25;4986402;28;20034;-62
2022/11/23 10:15:02;;;;;;;11.20;2.83;;;;;;;14.57;59.26;99627.53;5004813;28;20633;-62
2022/11/23 10:17:39;;;;;;;10.45;2.30;;;;;;;14.81;57.37;99630.41;4997241;28;20032;-63
2022/11/23 10:20:26;;;;;;;8.10;2.45;;;;;;;15.56;57.30;99618.88;4988208;28;20077;-63
2022/11/23 10:22:57;;;;;;;11.80;2.85;;;;;;;16.08;53.31;99618.03;5003928;28;20042;-63
2022/11/23 10:25:23;;;;;;;11.85;2.50;;;;;;;16.30;52.21;99611.91;5007200;28;20038;-63
2022/11/23 10:27:53;;;;;;;8.80;2.45;;;;;;;16.25;51.86;99619.47;4996774;28;20373;-63
2022/11/23 10:30:19;;;;;;;11.00;2.38;;;;;;;16.05;51.66;99617.78;5006444;28;20117;-63
2022/11/23 10:32:54;;;;;;;9.85;2.10;;;;;;;15.95;53.31;99624.28;5005889;28;20436;-63
2022/11/23 10:35:31;;;;;;;8.95;2.72;;;;;;;16.64;52.70;99618.34;5002530;28;20030;-63
2022/11/23 10:38:09;;;;;;;10.45;2.38;;;;;;;16.31;51.56;99615.47;5005136;28;20026;-62
2022/11/23 10:40:38;;;;;;;8.50;2.70;;;;;;;15.99;51.67;99630.06;5001236;28;20436;-63
2022/11/23 10:43:14;;;;;;;10.35;2.15;;;;;;;15.94;53.02;99619.03;5005432;28;20045;-63
2022/11/23 10:45:39;;;;;;;9.43;2.67;;;;;;;16.30;51.43;99616.63;5008427;28;20107;-62
2022/11/23 10:48:04;;;;;;;9.20;2.05;;;;;;;16.77;50.44;99614.81;5006057;28;20422;-63
2022/11/23 10:50:36;;;;;;;9.07;2.15;;;;;;;16.74;49.72;99615.44;5005124;28;20034;-63
2022/11/23 10:53:04;;;;;;;10.55;2.20;;;;;;;16.31;50.20;99626.56;5008565;28;20033;-62
2022/11/23 10:55:30;;;;;;;;;;;;;;;16.20;52.40;99608.44;5008690;28;20040;-63
2022/11/23 10:57:56;;;;;;;8.00;2.45;;;;;;;15.71;51.50;99613.25;5003351;28;19925;-63
2022/11/23 11:00:23;;;;;;;9.13;2.10;;;;;;;16.07;51.31;99594.22;5007307;28;20038;-63
2022/11/23 11:02:54;;;;;;;7.63;1.90;;;;;;;15.83;51.26;99612.81;5005024;28;20040;-63
2022/11/23 11:05:38;;;;;;;8.52;2.40;;;;;;;14.98;54.17;99597.63;5000160;28;20041;-63
2022/11/23 11:08:16;;;;;;;10.55;2.10;;;;;;;13.44;58.20;99607.09;4999639;28;20030;-63
2022/11/23 11:10:42;;;;;;;11.13;2.17;;;;;;;12.49;62.17;99604.91;5004802;28;20076;-63
2022/11/23 11:13:22;;;;;;;8.48;2.10;;;;;;;12.97;61.58;99584.22;5003897;28;20045;-63
2022/11/23 11:15:57;;;;;;;10.50;2.45;;;;;;;13.29;60.97;99580.38;5002671;28;20444;-63
2022/11/23 11:18:28;;;;;;;6.20;2.08;;;;;;;14.20;57.55;99584.66;5009924;28;20342;-63
2022/11/23 11:21:25;;;;;;;7.03;1.60;;;;;;;14.61;57.27;99578.88;5001882;28;20115;-63
2022/11/23 11:23:53;;;;;;;8.10;2.38;;;;;;;15.14;53.87;99589.19;4996686;28;20765;-63
2022/11/23 11:26:21;;;;;;;9.18;2.00;;;;;;;14.18;56.08;99578.59;4999216;28;20022;-63
2022/11/23 11:28:50;;;;;;;10.27;2.40;;;;;;;13.35;59.19;99579.25;5010187;28;20030;-63